LOG35D EGNS-EGLL
Flight info
| Callsign | LOG35D |
|---|---|
| Flight time | 0h 58m |
| Altitude | 19000 |
| Route | TIMIS Q39 NOMSU Q4 WAL Y53 NUGRA |
| Aircraft | AT76/M-SDFGIRY/S |
Departure
| Time | 2026-05-07 11:02 |
|---|---|
| Airport | Isle of Man Airport (EGNS) |
Arrival
| Time | 2026-05-07 12:00 |
|---|---|
| Airport | London Heathrow Airport (EGLL) |
| Time | Latitude | Longitude | Altitude | Speed | Heading |
|---|---|---|---|---|---|
| 2026-05-07 10:38 | 54.08628 | -4.63269 | 42 ft | 0 kts | 224° |
| 2026-05-07 10:52 | 54.08635 | -4.63256 | 42 ft | 4 kts | 227° |
| 2026-05-07 10:52 | 54.08653 | -4.63222 | 42 ft | 4 kts | 225° |
| 2026-05-07 10:53 | 54.08672 | -4.63199 | 42 ft | 4 kts | 168° |
| 2026-05-07 10:53 | 54.08680 | -4.63205 | 42 ft | 1 kts | 150° |
| 2026-05-07 10:53 | 54.08681 | -4.63205 | 42 ft | 0 kts | 150° |
| 2026-05-07 10:55 | 54.08680 | -4.63204 | 42 ft | 1 kts | 150° |
| 2026-05-07 10:55 | 54.08675 | -4.63199 | 42 ft | 1 kts | 150° |
| 2026-05-07 10:55 | 54.08668 | -4.63193 | 42 ft | 1 kts | 150° |
| 2026-05-07 10:55 | 54.08653 | -4.63174 | 42 ft | 5 kts | 137° |
| 2026-05-07 10:56 | 54.08624 | -4.63121 | 42 ft | 7 kts | 118° |
| 2026-05-07 10:56 | 54.08633 | -4.63006 | 44 ft | 12 kts | 79° |
| 2026-05-07 10:56 | 54.08628 | -4.62886 | 56 ft | 9 kts | 96° |
| 2026-05-07 10:56 | 54.08621 | -4.62792 | 48 ft | 7 kts | 96° |
| 2026-05-07 10:57 | 54.08615 | -4.62704 | 51 ft | 7 kts | 96° |
| 2026-05-07 10:57 | 54.08610 | -4.62619 | 52 ft | 10 kts | 96° |
| 2026-05-07 10:57 | 54.08598 | -4.62456 | 53 ft | 13 kts | 96° |
| 2026-05-07 10:57 | 54.08589 | -4.62330 | 54 ft | 10 kts | 96° |
| 2026-05-07 10:58 | 54.08580 | -4.62213 | 53 ft | 11 kts | 98° |
| 2026-05-07 10:58 | 54.08569 | -4.62069 | 46 ft | 14 kts | 98° |
| 2026-05-07 10:58 | 54.08549 | -4.61906 | 41 ft | 14 kts | 83° |
| 2026-05-07 10:58 | 54.08570 | -4.61739 | 38 ft | 14 kts | 78° |
| 2026-05-07 10:59 | 54.08590 | -4.61583 | 38 ft | 13 kts | 78° |
| 2026-05-07 10:59 | 54.08608 | -4.61437 | 38 ft | 12 kts | 78° |
| 2026-05-07 10:59 | 54.08626 | -4.61298 | 38 ft | 12 kts | 78° |
| 2026-05-07 10:59 | 54.08641 | -4.61163 | 38 ft | 11 kts | 78° |
| 2026-05-07 11:00 | 54.08658 | -4.61033 | 38 ft | 11 kts | 78° |
| 2026-05-07 11:00 | 54.08669 | -4.60905 | 38 ft | 11 kts | 96° |
| 2026-05-07 11:00 | 54.08634 | -4.60803 | 38 ft | 13 kts | 140° |
| 2026-05-07 11:00 | 54.08562 | -4.60765 | 38 ft | 9 kts | 170° |
| 2026-05-07 11:01 | 54.08526 | -4.60804 | 38 ft | 7 kts | 248° |
| 2026-05-07 11:01 | 54.08487 | -4.61118 | 38 ft | 57 kts | 258° |
| 2026-05-07 11:01 | 54.08359 | -4.62135 | 39 ft | 117 kts | 258° |
| 2026-05-07 11:01 | 54.08186 | -4.63609 | 420 ft | 127 kts | 253° |
| 2026-05-07 11:02 | 54.07977 | -4.65081 | 1060 ft | 128 kts | 250° |
| 2026-05-07 11:02 | 54.07716 | -4.66545 | 1664 ft | 128 kts | 234° |
| 2026-05-07 11:02 | 54.06941 | -4.67050 | 2193 ft | 138 kts | 163° |
| 2026-05-07 11:02 | 54.06272 | -4.65774 | 2709 ft | 154 kts | 127° |
| 2026-05-07 11:03 | 54.05440 | -4.64691 | 3175 ft | 156 kts | 158° |
| 2026-05-07 11:03 | 54.04456 | -4.63702 | 3622 ft | 172 kts | 150° |
| 2026-05-07 11:03 | 54.03448 | -4.62473 | 4086 ft | 184 kts | 146° |
| 2026-05-07 11:03 | 54.02419 | -4.61092 | 4558 ft | 188 kts | 144° |
| 2026-05-07 11:04 | 54.01416 | -4.59693 | 5024 ft | 185 kts | 144° |
| 2026-05-07 11:04 | 54.00431 | -4.58297 | 5490 ft | 183 kts | 144° |
| 2026-05-07 11:04 | 53.99456 | -4.56931 | 5968 ft | 180 kts | 145° |
| 2026-05-07 11:04 | 53.98482 | -4.55602 | 6453 ft | 179 kts | 146° |
| 2026-05-07 11:05 | 53.97527 | -4.54310 | 6888 ft | 177 kts | 146° |
| 2026-05-07 11:05 | 53.96569 | -4.53017 | 7340 ft | 175 kts | 147° |
| 2026-05-07 11:05 | 53.95625 | -4.51744 | 7800 ft | 172 kts | 147° |
| 2026-05-07 11:05 | 53.94693 | -4.50490 | 8268 ft | 169 kts | 147° |
| 2026-05-07 11:06 | 53.93775 | -4.49255 | 8718 ft | 168 kts | 147° |
| 2026-05-07 11:06 | 53.92826 | -4.47993 | 9100 ft | 182 kts | 147° |
| 2026-05-07 11:06 | 53.91781 | -4.46627 | 9487 ft | 197 kts | 147° |
| 2026-05-07 11:06 | 53.90653 | -4.45181 | 9866 ft | 206 kts | 147° |
| 2026-05-07 11:07 | 53.89521 | -4.43682 | 10208 ft | 207 kts | 146° |
| 2026-05-07 11:07 | 53.88392 | -4.42173 | 10550 ft | 207 kts | 146° |
| 2026-05-07 11:07 | 53.87259 | -4.40661 | 10900 ft | 207 kts | 146° |
| 2026-05-07 11:07 | 53.86282 | -4.38908 | 11236 ft | 209 kts | 129° |
| 2026-05-07 11:08 | 53.85501 | -4.36819 | 11595 ft | 210 kts | 126° |
| 2026-05-07 11:08 | 53.84742 | -4.34709 | 11953 ft | 210 kts | 126° |
| 2026-05-07 11:08 | 53.83962 | -4.32625 | 12309 ft | 209 kts | 128° |
| 2026-05-07 11:08 | 53.83152 | -4.30582 | 12683 ft | 208 kts | 129° |
| 2026-05-07 11:09 | 53.82324 | -4.28569 | 13054 ft | 208 kts | 130° |
| 2026-05-07 11:09 | 53.81500 | -4.26568 | 13429 ft | 207 kts | 130° |
| 2026-05-07 11:09 | 53.80681 | -4.24575 | 13805 ft | 206 kts | 130° |
| 2026-05-07 11:09 | 53.79867 | -4.22593 | 14144 ft | 204 kts | 129° |
| 2026-05-07 11:10 | 53.79059 | -4.20625 | 14481 ft | 202 kts | 129° |
| 2026-05-07 11:10 | 53.78261 | -4.18681 | 14825 ft | 200 kts | 130° |
| 2026-05-07 11:10 | 53.77472 | -4.16761 | 15168 ft | 198 kts | 129° |
| 2026-05-07 11:10 | 53.76676 | -4.14829 | 15415 ft | 201 kts | 129° |
| 2026-05-07 11:11 | 53.75872 | -4.12877 | 15666 ft | 204 kts | 129° |
| 2026-05-07 11:11 | 53.75057 | -4.10900 | 15923 ft | 206 kts | 129° |
| 2026-05-07 11:11 | 53.74234 | -4.08901 | 16182 ft | 208 kts | 129° |
| 2026-05-07 11:11 | 53.73402 | -4.06882 | 16443 ft | 210 kts | 129° |
| 2026-05-07 11:12 | 53.72562 | -4.04850 | 16706 ft | 212 kts | 129° |
| 2026-05-07 11:12 | 53.71725 | -4.02824 | 16966 ft | 213 kts | 128° |
| 2026-05-07 11:12 | 53.70874 | -4.00763 | 17235 ft | 215 kts | 128° |
| 2026-05-07 11:12 | 53.70018 | -3.98690 | 17504 ft | 216 kts | 128° |
| 2026-05-07 11:13 | 53.69159 | -3.96612 | 17775 ft | 216 kts | 128° |
| 2026-05-07 11:13 | 53.68295 | -3.94525 | 18054 ft | 217 kts | 128° |
| 2026-05-07 11:13 | 53.67427 | -3.92445 | 18317 ft | 217 kts | 128° |
| 2026-05-07 11:13 | 53.66562 | -3.90362 | 18548 ft | 217 kts | 129° |
| 2026-05-07 11:14 | 53.65691 | -3.88278 | 18783 ft | 218 kts | 128° |
| 2026-05-07 11:14 | 53.64807 | -3.86167 | 18903 ft | 224 kts | 128° |
| 2026-05-07 11:14 | 53.63893 | -3.83977 | 18961 ft | 233 kts | 128° |
| 2026-05-07 11:14 | 53.62947 | -3.81702 | 18992 ft | 241 kts | 128° |
| 2026-05-07 11:15 | 53.61961 | -3.79346 | 19002 ft | 249 kts | 128° |
| 2026-05-07 11:15 | 53.60951 | -3.76923 | 19009 ft | 256 kts | 128° |
| 2026-05-07 11:15 | 53.59912 | -3.74432 | 19012 ft | 262 kts | 128° |
| 2026-05-07 11:15 | 53.58850 | -3.71896 | 19016 ft | 267 kts | 128° |
| 2026-05-07 11:16 | 53.57775 | -3.69324 | 19016 ft | 271 kts | 128° |
| 2026-05-07 11:16 | 53.56678 | -3.66716 | 19016 ft | 274 kts | 128° |
| 2026-05-07 11:16 | 53.55574 | -3.64083 | 19018 ft | 277 kts | 128° |
| 2026-05-07 11:16 | 53.54457 | -3.61422 | 19013 ft | 279 kts | 128° |
| 2026-05-07 11:17 | 53.53346 | -3.58792 | 19018 ft | 280 kts | 128° |
| 2026-05-07 11:17 | 53.52218 | -3.56104 | 19019 ft | 281 kts | 128° |
| 2026-05-07 11:17 | 53.51084 | -3.53416 | 19021 ft | 282 kts | 128° |
| 2026-05-07 11:17 | 53.49947 | -3.50721 | 19030 ft | 283 kts | 128° |
| 2026-05-07 11:18 | 53.49182 | -3.48900 | 19028 ft | 283 kts | 128° |
| 2026-05-07 11:18 | 53.48039 | -3.46200 | 19033 ft | 284 kts | 128° |
| 2026-05-07 11:18 | 53.46912 | -3.43528 | 19031 ft | 284 kts | 127° |
| 2026-05-07 11:18 | 53.45958 | -3.40619 | 19034 ft | 286 kts | 116° |
| 2026-05-07 11:19 | 53.45229 | -3.37504 | 19035 ft | 286 kts | 113° |
| 2026-05-07 11:19 | 53.44528 | -3.34376 | 19036 ft | 286 kts | 113° |
| 2026-05-07 11:19 | 53.43784 | -3.31275 | 19037 ft | 287 kts | 115° |
| 2026-05-07 11:19 | 53.43003 | -3.28189 | 19034 ft | 287 kts | 115° |
| 2026-05-07 11:20 | 53.42219 | -3.25115 | 19037 ft | 287 kts | 116° |
| 2026-05-07 11:20 | 53.41421 | -3.22042 | 19038 ft | 287 kts | 116° |
| 2026-05-07 11:20 | 53.40632 | -3.18961 | 19039 ft | 287 kts | 116° |
| 2026-05-07 11:20 | 53.39855 | -3.15911 | 19040 ft | 288 kts | 116° |
| 2026-05-07 11:21 | 53.39041 | -3.12862 | 19040 ft | 284 kts | 121° |
| 2026-05-07 11:21 | 53.37911 | -3.10143 | 19044 ft | 284 kts | 130° |
| 2026-05-07 11:21 | 53.36670 | -3.07567 | 19037 ft | 285 kts | 133° |
| 2026-05-07 11:21 | 53.35426 | -3.04973 | 19043 ft | 285 kts | 131° |
| 2026-05-07 11:22 | 53.34214 | -3.02344 | 19046 ft | 285 kts | 130° |
| 2026-05-07 11:22 | 53.33034 | -2.99673 | 19046 ft | 285 kts | 130° |
| 2026-05-07 11:22 | 53.31846 | -2.97013 | 19047 ft | 285 kts | 130° |
| 2026-05-07 11:22 | 53.30661 | -2.94354 | 19047 ft | 285 kts | 130° |
| 2026-05-07 11:23 | 53.29479 | -2.91678 | 19047 ft | 285 kts | 129° |
| 2026-05-07 11:23 | 53.28315 | -2.89043 | 19047 ft | 285 kts | 129° |
| 2026-05-07 11:23 | 53.27138 | -2.86370 | 19048 ft | 285 kts | 129° |
| 2026-05-07 11:23 | 53.25961 | -2.83696 | 19047 ft | 285 kts | 129° |
| 2026-05-07 11:24 | 53.24770 | -2.81044 | 19042 ft | 285 kts | 130° |
| 2026-05-07 11:24 | 53.23578 | -2.78387 | 19045 ft | 285 kts | 130° |
| 2026-05-07 11:24 | 53.22387 | -2.75740 | 19048 ft | 285 kts | 130° |
| 2026-05-07 11:24 | 53.21190 | -2.73099 | 19044 ft | 285 kts | 130° |
| 2026-05-07 11:25 | 53.19989 | -2.70459 | 19050 ft | 285 kts | 130° |
| 2026-05-07 11:25 | 53.18786 | -2.67827 | 19052 ft | 285 kts | 130° |
| 2026-05-07 11:25 | 53.17577 | -2.65192 | 19054 ft | 286 kts | 131° |
| 2026-05-07 11:25 | 53.16370 | -2.62550 | 19058 ft | 286 kts | 130° |
| 2026-05-07 11:26 | 53.15187 | -2.59946 | 19058 ft | 285 kts | 130° |
| 2026-05-07 11:26 | 53.13988 | -2.57307 | 19048 ft | 286 kts | 130° |
| 2026-05-07 11:26 | 53.12829 | -2.54613 | 19042 ft | 286 kts | 127° |
| 2026-05-07 11:26 | 53.11716 | -2.51858 | 19044 ft | 286 kts | 127° |
| 2026-05-07 11:27 | 53.10608 | -2.49105 | 19046 ft | 286 kts | 126° |
| 2026-05-07 11:27 | 53.09500 | -2.46352 | 19046 ft | 286 kts | 126° |
| 2026-05-07 11:27 | 53.08390 | -2.43605 | 19053 ft | 286 kts | 126° |
| 2026-05-07 11:27 | 53.07275 | -2.40854 | 19053 ft | 286 kts | 126° |
| 2026-05-07 11:28 | 53.06160 | -2.38108 | 19054 ft | 286 kts | 127° |
| 2026-05-07 11:28 | 53.05043 | -2.35372 | 19054 ft | 286 kts | 128° |
| 2026-05-07 11:28 | 53.03919 | -2.32639 | 19054 ft | 286 kts | 127° |
| 2026-05-07 11:28 | 53.02718 | -2.30047 | 19055 ft | 280 kts | 140° |
| 2026-05-07 11:29 | 53.01166 | -2.28182 | 19053 ft | 279 kts | 151° |
| 2026-05-07 11:29 | 52.99486 | -2.26559 | 19057 ft | 279 kts | 153° |
| 2026-05-07 11:29 | 52.97800 | -2.24949 | 19051 ft | 280 kts | 152° |
| 2026-05-07 11:29 | 52.96132 | -2.23276 | 19052 ft | 280 kts | 150° |
| 2026-05-07 11:30 | 52.94487 | -2.21541 | 19060 ft | 280 kts | 150° |
| 2026-05-07 11:30 | 52.92835 | -2.19804 | 19058 ft | 280 kts | 150° |
| 2026-05-07 11:30 | 52.91178 | -2.18072 | 19062 ft | 281 kts | 150° |
| 2026-05-07 11:30 | 52.89531 | -2.16346 | 19061 ft | 281 kts | 150° |
| 2026-05-07 11:31 | 52.87897 | -2.14642 | 19060 ft | 281 kts | 150° |
| 2026-05-07 11:31 | 52.86244 | -2.12913 | 19062 ft | 281 kts | 150° |
| 2026-05-07 11:31 | 52.84587 | -2.11186 | 19057 ft | 281 kts | 150° |
| 2026-05-07 11:31 | 52.82930 | -2.09458 | 19059 ft | 281 kts | 150° |
| 2026-05-07 11:32 | 52.79616 | -2.06011 | 19059 ft | 281 kts | 150° |
| 2026-05-07 11:32 | 52.77959 | -2.04286 | 19059 ft | 282 kts | 150° |
| 2026-05-07 11:32 | 52.76300 | -2.02565 | 19060 ft | 281 kts | 150° |
| 2026-05-07 11:33 | 52.74643 | -2.00845 | 19054 ft | 281 kts | 150° |
| 2026-05-07 11:33 | 52.73009 | -1.99148 | 19060 ft | 281 kts | 150° |
| 2026-05-07 11:33 | 52.71350 | -1.97431 | 19063 ft | 281 kts | 150° |
| 2026-05-07 11:33 | 52.69686 | -1.95711 | 19057 ft | 281 kts | 150° |
| 2026-05-07 11:34 | 52.68025 | -1.93994 | 19058 ft | 282 kts | 150° |
| 2026-05-07 11:34 | 52.66362 | -1.92280 | 19059 ft | 282 kts | 150° |
| 2026-05-07 11:34 | 52.64701 | -1.90563 | 19062 ft | 282 kts | 150° |
| 2026-05-07 11:34 | 52.63039 | -1.88851 | 19065 ft | 282 kts | 150° |
| 2026-05-07 11:35 | 52.61378 | -1.87139 | 19073 ft | 282 kts | 150° |
| 2026-05-07 11:35 | 52.59715 | -1.85428 | 19073 ft | 282 kts | 150° |
| 2026-05-07 11:35 | 52.58050 | -1.83719 | 19072 ft | 282 kts | 150° |
| 2026-05-07 11:35 | 52.56387 | -1.82009 | 19074 ft | 282 kts | 150° |
| 2026-05-07 11:36 | 52.54740 | -1.80321 | 19070 ft | 282 kts | 150° |
| 2026-05-07 11:36 | 52.53075 | -1.78610 | 19076 ft | 282 kts | 150° |
| 2026-05-07 11:36 | 52.51411 | -1.76907 | 19078 ft | 282 kts | 150° |
| 2026-05-07 11:36 | 52.49743 | -1.75199 | 19070 ft | 282 kts | 150° |
| 2026-05-07 11:37 | 52.48074 | -1.73494 | 19075 ft | 282 kts | 150° |
| 2026-05-07 11:37 | 52.46409 | -1.71795 | 19076 ft | 282 kts | 150° |
| 2026-05-07 11:37 | 52.44742 | -1.70090 | 19073 ft | 282 kts | 150° |
| 2026-05-07 11:37 | 52.43081 | -1.68397 | 19076 ft | 282 kts | 150° |
| 2026-05-07 11:38 | 52.41411 | -1.66699 | 19074 ft | 282 kts | 150° |
| 2026-05-07 11:38 | 52.39745 | -1.65000 | 19076 ft | 282 kts | 150° |
| 2026-05-07 11:38 | 52.38101 | -1.63328 | 19078 ft | 282 kts | 150° |
| 2026-05-07 11:38 | 52.36433 | -1.61637 | 19076 ft | 282 kts | 150° |
| 2026-05-07 11:39 | 52.34764 | -1.59943 | 19070 ft | 282 kts | 150° |
| 2026-05-07 11:39 | 52.33100 | -1.58252 | 19074 ft | 282 kts | 150° |
| 2026-05-07 11:39 | 52.31431 | -1.56562 | 19069 ft | 282 kts | 150° |
| 2026-05-07 11:39 | 52.29764 | -1.54872 | 19074 ft | 282 kts | 150° |
| 2026-05-07 11:40 | 52.28096 | -1.53185 | 19077 ft | 282 kts | 150° |
| 2026-05-07 11:40 | 52.26428 | -1.51502 | 19070 ft | 282 kts | 150° |
| 2026-05-07 11:40 | 52.24761 | -1.49821 | 19080 ft | 281 kts | 150° |
| 2026-05-07 11:40 | 52.23097 | -1.48139 | 19078 ft | 281 kts | 150° |
| 2026-05-07 11:41 | 52.21430 | -1.46464 | 19078 ft | 282 kts | 149° |
| 2026-05-07 11:41 | 52.19885 | -1.44478 | 19076 ft | 283 kts | 140° |
| 2026-05-07 11:41 | 52.18448 | -1.42288 | 19074 ft | 283 kts | 139° |
| 2026-05-07 11:41 | 52.17007 | -1.40098 | 19068 ft | 283 kts | 140° |
| 2026-05-07 11:42 | 52.15530 | -1.37978 | 19075 ft | 283 kts | 141° |
| 2026-05-07 11:42 | 52.14047 | -1.35928 | 19076 ft | 283 kts | 142° |
| 2026-05-07 11:42 | 52.12546 | -1.33842 | 19075 ft | 284 kts | 141° |
| 2026-05-07 11:42 | 52.11026 | -1.31725 | 18841 ft | 291 kts | 141° |
| 2026-05-07 11:43 | 52.09466 | -1.29562 | 18487 ft | 297 kts | 141° |
| 2026-05-07 11:43 | 52.07879 | -1.27355 | 18086 ft | 302 kts | 141° |
| 2026-05-07 11:43 | 52.06272 | -1.25121 | 17677 ft | 306 kts | 141° |
| 2026-05-07 11:43 | 52.04648 | -1.22866 | 17270 ft | 308 kts | 141° |
| 2026-05-07 11:44 | 52.03013 | -1.20603 | 16859 ft | 309 kts | 141° |
| 2026-05-07 11:44 | 52.01373 | -1.18330 | 16504 ft | 309 kts | 141° |
| 2026-05-07 11:44 | 51.99746 | -1.16083 | 16251 ft | 303 kts | 141° |
| 2026-05-07 11:44 | 51.98151 | -1.13889 | 15783 ft | 297 kts | 141° |
| 2026-05-07 11:45 | 51.96593 | -1.11731 | 15390 ft | 291 kts | 141° |
| 2026-05-07 11:45 | 51.95094 | -1.09649 | 15038 ft | 285 kts | 141° |
| 2026-05-07 11:45 | 51.93580 | -1.07569 | 14684 ft | 285 kts | 141° |
| 2026-05-07 11:45 | 51.92049 | -1.05460 | 14329 ft | 285 kts | 141° |
| 2026-05-07 11:46 | 51.90558 | -1.03412 | 13980 ft | 285 kts | 141° |
| 2026-05-07 11:46 | 51.89048 | -1.01338 | 13615 ft | 284 kts | 141° |
| 2026-05-07 11:46 | 51.87543 | -0.99268 | 13219 ft | 283 kts | 140° |
| 2026-05-07 11:46 | 51.86044 | -0.97205 | 12831 ft | 283 kts | 140° |
| 2026-05-07 11:47 | 51.84719 | -0.94899 | 12449 ft | 280 kts | 122° |
| 2026-05-07 11:47 | 51.83852 | -0.92084 | 12073 ft | 280 kts | 115° |
| 2026-05-07 11:47 | 51.83079 | -0.89191 | 11709 ft | 280 kts | 114° |
| 2026-05-07 11:47 | 51.82291 | -0.86312 | 11352 ft | 280 kts | 116° |
| 2026-05-07 11:48 | 51.81448 | -0.83504 | 10954 ft | 273 kts | 118° |
| 2026-05-07 11:48 | 51.80595 | -0.80788 | 10513 ft | 268 kts | 117° |
| 2026-05-07 11:48 | 51.79753 | -0.78131 | 10075 ft | 264 kts | 118° |
| 2026-05-07 11:48 | 51.78925 | -0.75500 | 9611 ft | 261 kts | 117° |
| 2026-05-07 11:49 | 51.78115 | -0.72880 | 9123 ft | 259 kts | 117° |
| 2026-05-07 11:49 | 51.77315 | -0.70287 | 8656 ft | 258 kts | 117° |
| 2026-05-07 11:49 | 51.76526 | -0.67736 | 8198 ft | 257 kts | 117° |
| 2026-05-07 11:49 | 51.75733 | -0.65158 | 7723 ft | 256 kts | 117° |
| 2026-05-07 11:50 | 51.74950 | -0.62619 | 7370 ft | 252 kts | 117° |
| 2026-05-07 11:50 | 51.74185 | -0.60138 | 7211 ft | 241 kts | 117° |
| 2026-05-07 11:50 | 51.73454 | -0.57778 | 7142 ft | 229 kts | 118° |
| 2026-05-07 11:50 | 51.72529 | -0.55717 | 7102 ft | 227 kts | 143° |
| 2026-05-07 11:51 | 51.71088 | -0.54884 | 7087 ft | 220 kts | 181° |
| 2026-05-07 11:51 | 51.69676 | -0.55638 | 7087 ft | 213 kts | 215° |
| 2026-05-07 11:51 | 51.68437 | -0.57087 | 7086 ft | 223 kts | 218° |
| 2026-05-07 11:51 | 51.67203 | -0.58632 | 7079 ft | 225 kts | 219° |
| 2026-05-07 11:52 | 51.65981 | -0.60229 | 7088 ft | 227 kts | 220° |
| 2026-05-07 11:52 | 51.64758 | -0.61853 | 7076 ft | 228 kts | 220° |
| 2026-05-07 11:52 | 51.63533 | -0.63493 | 6922 ft | 232 kts | 220° |
| 2026-05-07 11:52 | 51.62308 | -0.65150 | 6503 ft | 234 kts | 221° |
| 2026-05-07 11:53 | 51.61062 | -0.66832 | 6026 ft | 236 kts | 221° |
| 2026-05-07 11:53 | 51.59805 | -0.68538 | 5544 ft | 237 kts | 221° |
| 2026-05-07 11:53 | 51.58556 | -0.70240 | 5079 ft | 236 kts | 221° |
| 2026-05-07 11:53 | 51.57304 | -0.71950 | 4613 ft | 236 kts | 220° |
| 2026-05-07 11:54 | 51.56046 | -0.73655 | 4254 ft | 234 kts | 221° |
| 2026-05-07 11:54 | 51.54823 | -0.75306 | 4096 ft | 226 kts | 221° |
| 2026-05-07 11:54 | 51.53507 | -0.76521 | 4030 ft | 217 kts | 194° |
| 2026-05-07 11:54 | 51.51975 | -0.76743 | 3611 ft | 226 kts | 183° |
| 2026-05-07 11:55 | 51.50383 | -0.76828 | 3254 ft | 228 kts | 182° |
| 2026-05-07 11:55 | 51.48866 | -0.76516 | 3101 ft | 216 kts | 155° |
| 2026-05-07 11:55 | 51.47833 | -0.74884 | 3034 ft | 208 kts | 117° |
| 2026-05-07 11:55 | 51.47457 | -0.72698 | 3013 ft | 201 kts | 89° |
| 2026-05-07 11:56 | 51.47562 | -0.70488 | 2841 ft | 198 kts | 85° |
| 2026-05-07 11:56 | 51.47679 | -0.68305 | 2568 ft | 199 kts | 85° |
| 2026-05-07 11:56 | 51.47717 | -0.66117 | 2300 ft | 191 kts | 92° |
| 2026-05-07 11:56 | 51.47688 | -0.64074 | 2049 ft | 174 kts | 91° |
| 2026-05-07 11:57 | 51.47697 | -0.62175 | 1824 ft | 170 kts | 89° |
| 2026-05-07 11:57 | 51.47712 | -0.60357 | 1583 ft | 156 kts | 90° |
| 2026-05-07 11:57 | 51.47717 | -0.58701 | 1393 ft | 140 kts | 90° |
| 2026-05-07 11:57 | 51.47722 | -0.57226 | 1208 ft | 127 kts | 89° |
| 2026-05-07 11:58 | 51.47727 | -0.55818 | 1034 ft | 124 kts | 90° |
| 2026-05-07 11:58 | 51.47738 | -0.54443 | 839 ft | 122 kts | 89° |
| 2026-05-07 11:58 | 51.47755 | -0.53091 | 715 ft | 121 kts | 91° |
| 2026-05-07 11:58 | 51.47744 | -0.51734 | 531 ft | 122 kts | 92° |
| 2026-05-07 11:59 | 51.47751 | -0.50410 | 356 ft | 117 kts | 91° |
| 2026-05-07 11:59 | 51.47753 | -0.49121 | 205 ft | 114 kts | 92° |
| 2026-05-07 11:59 | 51.47757 | -0.47891 | 95 ft | 105 kts | 93° |
| 2026-05-07 11:59 | 51.47754 | -0.46971 | 85 ft | 61 kts | 89° |
| 2026-05-07 12:00 | 51.47757 | -0.46363 | 84 ft | 49 kts | 90° |
| 2026-05-07 12:00 | 51.47727 | -0.46167 | 84 ft | 9 kts | 149° |
| 2026-05-07 12:00 | 51.47674 | -0.46114 | 82 ft | 6 kts | 142° |
| 2026-05-07 12:00 | 51.47638 | -0.46073 | 82 ft | 6 kts | 145° |
| 2026-05-07 12:01 | 51.47612 | -0.46040 | 84 ft | 0 kts | 134° |
| 2026-05-07 12:01 | 51.47594 | -0.45968 | 85 ft | 15 kts | 90° |
| 2026-05-07 12:02 | 51.47594 | -0.45799 | 84 ft | 15 kts | 90° |
| 2026-05-07 12:02 | 51.47595 | -0.45641 | 82 ft | 10 kts | 87° |
| 2026-05-07 12:02 | 51.47597 | -0.45539 | 82 ft | 15 kts | 90° |
| 2026-05-07 12:02 | 51.47596 | -0.45359 | 83 ft | 16 kts | 89° |
| 2026-05-07 12:03 | 51.47596 | -0.45246 | 84 ft | 15 kts | 89° |
| 2026-05-07 12:03 | 51.47597 | -0.45118 | 83 ft | 1 kts | 90° |
| 2026-05-07 12:03 | 51.47597 | -0.45037 | 83 ft | 17 kts | 89° |
| 2026-05-07 12:03 | 51.47598 | -0.44852 | 83 ft | 16 kts | 90° |
| 2026-05-07 12:04 | 51.47596 | -0.44688 | 88 ft | 12 kts | 109° |
| 2026-05-07 12:04 | 51.47529 | -0.44656 | 83 ft | 11 kts | 160° |
| 2026-05-07 12:04 | 51.47461 | -0.44556 | 84 ft | 21 kts | 177° |
| 2026-05-07 12:04 | 51.47286 | -0.44559 | 83 ft | 20 kts | 180° |
| 2026-05-07 12:05 | 51.47170 | -0.44557 | 83 ft | 14 kts | 177° |
| 2026-05-07 12:05 | 51.47086 | -0.44557 | 83 ft | 11 kts | 180° |
| 2026-05-07 12:05 | 51.47019 | -0.44556 | 83 ft | 9 kts | 180° |
| 2026-05-07 12:05 | 51.46964 | -0.44556 | 83 ft | 7 kts | 179° |
| 2026-05-07 12:06 | 51.46853 | -0.44555 | 83 ft | 16 kts | 179° |
| 2026-05-07 12:06 | 51.46761 | -0.44571 | 87 ft | 11 kts | 224° |
| 2026-05-07 12:06 | 51.46752 | -0.44709 | 83 ft | 14 kts | 270° |
| 2026-05-07 12:06 | 51.46751 | -0.44855 | 83 ft | 12 kts | 270° |
| 2026-05-07 12:07 | 51.46752 | -0.44983 | 83 ft | 11 kts | 266° |
| 2026-05-07 12:07 | 51.46768 | -0.45043 | 85 ft | 7 kts | 343° |
| 2026-05-07 12:07 | 51.46799 | -0.45043 | 83 ft | 5 kts | 360° |
| 2026-05-07 12:07 | 51.46820 | -0.45043 | 83 ft | 2 kts | 360° |
| 2026-05-07 12:08 | 51.46827 | -0.45043 | 83 ft | 0 kts | 360° |